Time;durP1;ratioP1;P1;durP2;ratioP2;P2;SDS_P1;SDS_P2;PMS_P1;PMS_P2;Temp;Humidity;BMP_temperature;BMP_pressure;BME280_temperature;BME280_humidity;BME280_pressure;Samples;Min_cycle;Max_cycle;Signal;HPM_P1;HPM_P2
2023/05/31 00:02:23;;;;;;;2.20;1.60;;;;;;;11.77;100.00;98667.31;5159394;27;20102;-55
2023/05/31 00:04:49;;;;;;;1.45;1.35;;;;;;;11.75;100.00;98642.97;5159782;27;20429;-60
2023/05/31 00:07:15;;;;;;;2.92;1.48;;;;;;;11.67;100.00;98624.91;5159120;27;20134;-60
2023/05/31 00:09:41;;;;;;;3.63;1.63;;;;;;;11.59;100.00;98609.53;5159436;27;20098;-63
2023/05/31 00:12:08;;;;;;;5.68;1.50;;;;;;;11.50;100.00;98609.91;5159429;27;20114;-59
2023/05/31 00:14:34;;;;;;;3.35;1.60;;;;;;;11.50;100.00;98593.44;5159338;27;20061;-61
2023/05/31 00:16:59;;;;;;;4.18;1.77;;;;;;;11.47;100.00;98585.97;5159424;27;20055;-54
2023/05/31 00:19:26;;;;;;;2.42;1.73;;;;;;;11.45;100.00;98591.03;5159189;27;20416;-52
2023/05/31 00:21:52;;;;;;;6.95;1.70;;;;;;;11.40;100.00;98574.97;5159393;27;20365;-53
2023/05/31 00:24:18;;;;;;;7.03;1.92;;;;;;;11.32;100.00;98560.41;5159115;27;20047;-56
2023/05/31 00:26:44;;;;;;;1.98;1.48;;;;;;;11.32;100.00;98556.88;5159334;27;20042;-57
2023/05/31 00:29:10;;;;;;;2.53;1.40;;;;;;;11.27;100.00;98554.50;5158878;27;20050;-57
2023/05/31 00:31:36;;;;;;;3.45;1.30;;;;;;;11.22;100.00;98541.91;5159247;27;20066;-61
2023/05/31 00:34:02;;;;;;;4.22;1.80;;;;;;;11.13;100.00;98543.44;5158832;27;20171;-62
2023/05/31 00:36:28;;;;;;;2.88;1.92;;;;;;;11.11;100.00;98523.84;5159212;27;20047;-60
2023/05/31 00:38:54;;;;;;;3.42;1.73;;;;;;;10.97;100.00;98514.38;5158876;27;20480;-63
2023/05/31 00:41:20;;;;;;;1.77;1.65;;;;;;;10.93;100.00;98508.09;5158917;27;20133;-58
2023/05/31 00:43:46;;;;;;;2.22;2.03;;;;;;;10.84;100.00;98496.66;5158961;27;20051;-59
2023/05/31 00:46:25;;;;;;;3.15;1.48;;;;;;;10.77;100.00;98497.41;5158823;27;20146;-54
2023/05/31 00:48:51;;;;;;;3.67;1.73;;;;;;;10.68;100.00;98483.25;5158935;27;20050;-61
2023/05/31 00:51:17;;;;;;;7.38;1.50;;;;;;;10.63;100.00;98475.41;5158546;27;20408;-54
2023/05/31 00:53:44;;;;;;;6.20;1.88;;;;;;;10.56;100.00;98467.91;5158796;27;20051;-55
2023/05/31 00:56:10;;;;;;;9.00;1.77;;;;;;;10.61;100.00;98469.50;5158555;27;20050;-51
2023/05/31 00:58:37;;;;;;;4.13;1.73;;;;;;;10.58;100.00;98464.78;5158890;27;20421;-58
2023/05/31 01:01:03;;;;;;;3.45;1.83;;;;;;;10.52;100.00;98466.28;5158433;27;20111;-62
2023/05/31 01:03:29;;;;;;;3.22;1.60;;;;;;;10.56;100.00;98467.91;5158855;27;20137;-57
2023/05/31 01:05:55;;;;;;;3.38;1.30;;;;;;;10.55;100.00;98468.28;5158564;27;20111;-53
2023/05/31 01:08:22;;;;;;;3.42;1.77;;;;;;;10.42;100.00;98470.53;5158598;27;20046;-52
2023/05/31 01:10:52;;;;;;;6.32;1.65;;;;;;;10.47;100.00;98464.72;5158624;27;20087;-63
2023/05/31 01:13:25;;;;;;;4.13;1.55;;;;;;;10.39;100.00;98465.03;5158435;27;20444;-61
2023/05/31 01:15:58;;;;;;;6.25;1.48;;;;;;;10.39;100.00;98465.03;5158439;27;20050;-61
2023/05/31 01:18:31;;;;;;;1.85;1.45;;;;;;;10.33;100.00;98464.63;5158218;27;20061;-54
2023/05/31 01:21:01;;;;;;;2.63;1.70;;;;;;;10.20;100.00;98472.31;5158514;27;20051;-62
2023/05/31 01:23:39;;;;;;;9.95;1.30;;;;;;;10.16;100.00;98476.16;5157585;27;20051;-53
2023/05/31 01:26:22;;;;;;;2.15;1.75;;;;;;;10.11;100.00;98477.31;5158508;27;20305;-57
2023/05/31 01:28:53;;;;;;;8.15;1.60;;;;;;;10.04;100.00;98480.00;5158323;27;20055;-60
2023/05/31 01:31:21;;;;;;;3.42;1.58;;;;;;;10.08;100.00;98486.28;5158183;27;20050;-52
2023/05/31 01:33:49;;;;;;;3.42;1.58;;;;;;;9.95;100.00;98480.28;5158317;27;20051;-57
2023/05/31 01:36:15;;;;;;;5.40;2.28;;;;;;;9.94;100.00;98486.94;5157968;27;20138;-61
2023/05/31 01:38:41;;;;;;;5.15;1.70;;;;;;;9.97;100.00;98494.41;5158254;27;20137;-58
2023/05/31 01:41:09;;;;;;;3.47;1.83;;;;;;;9.93;100.00;98490.84;5157954;27;20439;-56
2023/05/31 01:43:40;;;;;;;7.07;1.95;;;;;;;9.94;100.00;98492.41;5158290;27;20115;-60
2023/05/31 01:46:08;;;;;;;5.40;1.90;;;;;;;9.93;100.00;98496.34;5157749;27;20099;-59
2023/05/31 01:48:34;;;;;;;6.38;1.92;;;;;;;9.92;100.00;98500.22;5158235;27;20369;-61
2023/05/31 01:51:01;;;;;;;14.90;1.65;;;;;;;9.87;100.00;98500.56;5157742;27;20424;-62
2023/05/31 01:53:27;;;;;;;3.53;1.88;;;;;;;9.82;100.00;98503.63;5157908;27;20387;-60
2023/05/31 01:55:54;;;;;;;5.15;2.03;;;;;;;9.80;100.00;98501.28;5157974;27;20046;-54
2023/05/31 01:58:22;;;;;;;2.58;1.90;;;;;;;9.84;100.00;98512.25;5157817;27;20074;-57
2023/05/31 02:00:49;;;;;;;4.78;3.30;;;;;;;9.85;100.00;98514.63;5157890;27;20146;-59
2023/05/31 02:03:15;;;;;;;3.40;1.90;;;;;;;9.83;100.00;98513.41;5157599;27;20202;-61
2023/05/31 02:05:54;;;;;;;9.68;2.30;;;;;;;9.71;100.00;98514.47;5157955;27;20145;-57
2023/05/31 02:08:20;;;;;;;2.03;1.52;;;;;;;9.73;100.00;98522.28;5157461;27;20050;-57
2023/05/31 02:10:46;;;;;;;2.35;1.55;;;;;;;9.75;100.00;98530.94;5157910;27;20094;-59
2023/05/31 02:13:12;;;;;;;3.20;1.73;;;;;;;9.72;100.00;98531.69;5157450;27;20047;-62
2023/05/31 02:15:41;;;;;;;3.20;2.05;;;;;;;9.62;100.00;98555.03;5157811;27;20050;-62
2023/05/31 02:18:07;;;;;;;3.50;1.63;;;;;;;9.73;100.00;98561.44;5157436;27;20316;-56
2023/05/31 02:20:34;;;;;;;3.05;1.90;;;;;;;9.67;100.00;98560.19;5157484;27;20110;-54
2023/05/31 02:23:00;;;;;;;1.77;1.58;;;;;;;9.92;100.00;98559.66;5157647;27;20051;-59
2023/05/31 02:25:26;;;;;;;5.32;1.83;;;;;;;10.29;100.00;98541.28;5157427;27;20510;-60
2023/05/31 02:27:52;;;;;;;5.47;1.98;;;;;;;10.69;100.00;98536.09;5157653;27;20042;-57
2023/05/31 02:30:18;;;;;;;3.00;1.70;;;;;;;10.80;100.00;98546.00;5157360;27;20050;-56
2023/05/31 02:32:44;;;;;;;4.45;1.95;;;;;;;11.00;100.00;98560.22;5157514;27;20183;-62
2023/05/31 02:35:11;;;;;;;3.83;1.70;;;;;;;11.38;100.00;98590.22;5157198;27;20082;-62
2023/05/31 02:37:39;;;;;;;2.70;1.80;;;;;;;11.63;100.00;98648.81;5160990;27;20130;-54
2023/05/31 02:40:08;;;;;;;5.38;1.65;;;;;;;12.20;100.00;98748.00;5160580;27;20153;-61
2023/05/31 02:42:35;;;;;;;2.70;1.95;;;;;;;12.55;100.00;98831.78;5161084;27;20050;-63
2023/05/31 02:45:01;;;;;;;2.08;1.60;;;;;;;12.97;100.00;98870.88;5160828;27;20068;-53
2023/05/31 02:47:27;;;;;;;4.75;1.98;;;;;;;13.28;100.00;98924.47;5160796;27;20051;-57
2023/05/31 02:49:53;;;;;;;4.80;1.77;;;;;;;13.60;100.00;98963.91;5160830;27;20055;-57
2023/05/31 02:52:20;;;;;;;5.78;1.73;;;;;;;13.80;100.00;99008.41;5160470;27;20150;-54
2023/05/31 02:54:46;;;;;;;2.85;1.42;;;;;;;14.10;100.00;99024.63;5160797;27;20141;-55
2023/05/31 02:57:12;;;;;;;3.95;1.60;;;;;;;14.30;100.00;99047.09;5160539;27;20074;-52
2023/05/31 02:59:38;;;;;;;2.70;1.50;;;;;;;14.45;100.00;99069.16;5160698;27;20050;-54
2023/05/31 03:02:04;;;;;;;3.10;1.60;;;;;;;14.65;100.00;99109.00;5160386;27;20394;-61
2023/05/31 03:04:31;;;;;;;2.72;1.30;;;;;;;14.69;100.00;99142.88;5160532;27;20133;-53
2023/05/31 03:06:57;;;;;;;5.78;1.70;;;;;;;15.17;100.00;99170.13;5160022;27;20141;-55
2023/05/31 03:09:24;;;;;;;3.08;1.65;;;;;;;15.42;100.00;99185.88;5160919;27;20103;-56
2023/05/31 03:11:49;;;;;;;3.05;1.60;;;;;;;15.79;100.00;99209.50;5160165;27;20050;-56
2023/05/31 03:14:15;;;;;;;2.92;1.55;;;;;;;15.78;100.00;99211.50;5160287;27;20141;-56
2023/05/31 03:16:42;;;;;;;5.93;1.70;;;;;;;16.03;100.00;99216.97;5160116;27;20372;-59
2023/05/31 03:19:08;;;;;;;1.65;1.35;;;;;;;16.16;100.00;99220.88;5159980;27;20424;-59
2023/05/31 03:21:35;;;;;;;2.42;1.45;;;;;;;16.38;100.00;99253.97;5160163;27;20150;-58
2023/05/31 03:24:01;;;;;;;5.72;1.55;;;;;;;16.42;100.00;99252.75;5159962;27;20047;-63
2023/05/31 03:26:28;;;;;;;6.20;1.20;;;;;;;16.33;100.00;99266.25;5160354;27;20057;-63
2023/05/31 03:28:54;;;;;;;3.58;1.55;;;;;;;16.41;100.00;99267.78;5160009;27;20057;-61
2023/05/31 03:31:20;;;;;;;2.58;1.58;;;;;;;16.75;100.00;99261.72;5160146;27;20082;-64
2023/05/31 03:33:45;;;;;;;5.45;1.30;;;;;;;17.02;100.00;99267.47;5159899;27;20061;-63
2023/05/31 03:36:11;;;;;;;7.03;1.55;;;;;;;16.70;100.00;99276.75;5160229;27;20069;-62
2023/05/31 03:38:37;;;;;;;6.45;1.45;;;;;;;17.13;100.00;99286.81;5159747;27;20142;-60
2023/05/31 03:41:03;;;;;;;4.28;1.52;;;;;;;17.34;100.00;99292.19;5160103;27;20145;-56
2023/05/31 03:43:30;;;;;;;2.30;1.63;;;;;;;17.56;100.00;99292.00;5159903;27;20046;-53
2023/05/31 03:46:00;;;;;;;2.55;1.33;;;;;;;17.25;100.00;99299.38;5159880;27;20051;-56
2023/05/31 03:48:26;;;;;;;2.25;1.40;;;;;;;17.77;100.00;99293.84;5159543;27;20050;-62
2023/05/31 03:50:52;;;;;;;3.17;1.55;;;;;;;17.88;100.00;99289.75;5159558;27;20082;-62
2023/05/31 03:53:18;;;;;;;2.92;1.30;;;;;;;17.92;100.00;99297.25;5159862;27;20061;-58
2023/05/31 03:55:44;;;;;;;2.70;1.15;;;;;;;18.38;98.97;99307.09;5159594;27;20452;-57
2023/05/31 03:58:10;;;;;;;2.05;1.20;;;;;;;18.44;98.01;99311.78;5159729;27;20085;-58
2023/05/31 04:00:36;;;;;;;5.28;1.35;;;;;;;18.30;95.57;99315.50;5159392;27;20046;-59
2023/05/31 04:03:02;;;;;;;2.10;1.30;;;;;;;18.20;98.09;99307.31;5159813;27;20137;-58
2023/05/31 04:05:28;;;;;;;2.28;1.27;;;;;;;18.89;92.01;99324.72;5159298;27;20051;-59
2023/05/31 04:07:54;;;;;;;4.85;2.20;;;;;;;18.78;90.97;99328.44;5159808;27;20051;-62
2023/05/31 04:10:20;;;;;;;5.03;1.23;;;;;;;18.90;91.75;99323.53;5159156;27;20112;-62
2023/05/31 04:12:46;;;;;;;8.30;1.45;;;;;;;18.98;90.94;99325.00;5159445;27;20138;-64
2023/05/31 04:15:12;;;;;;;8.52;1.63;;;;;;;18.98;90.08;99327.78;5159081;27;20082;-62
2023/05/31 04:17:38;;;;;;;4.65;1.40;;;;;;;19.40;88.46;99320.81;5159055;27;20142;-62
2023/05/31 04:20:07;;;;;;;6.93;1.35;;;;;;;18.92;91.29;99337.78;5159336;27;20141;-64
2023/05/31 04:22:33;;;;;;;13.48;2.00;;;;;;;19.82;84.67;99342.81;5158925;27;20142;-55
2023/05/31 04:24:59;;;;;;;13.38;2.35;;;;;;;19.38;87.42;99331.56;5159210;27;20057;-53
2023/05/31 04:27:25;;;;;;;12.50;1.80;;;;;;;19.91;83.55;99343.06;5159088;27;20150;-59
2023/05/31 04:29:51;;;;;;;16.20;1.77;;;;;;;20.10;79.96;99342.34;5159231;27;20050;-57
2023/05/31 04:32:21;;;;;;;10.95;1.85;;;;;;;20.39;79.76;99342.59;5158900;27;20053;-55
2023/05/31 04:34:48;;;;;;;13.52;2.45;;;;;;;20.63;77.22;99343.34;5159242;27;20130;-62
2023/05/31 04:37:14;;;;;;;14.93;1.95;;;;;;;20.49;74.77;99349.16;5158716;27;20058;-61
2023/05/31 04:39:40;;;;;;;4.97;1.35;;;;;;;20.60;76.60;99346.22;5159082;27;20061;-62
2023/05/31 04:42:11;;;;;;;2.40;1.13;;;;;;;20.69;75.91;99349.19;5158706;27;20137;-53
2023/05/31 04:44:37;;;;;;;2.03;1.33;;;;;;;20.18;75.17;99346.56;5158737;27;20066;-54
2023/05/31 04:47:04;;;;;;;1.45;1.10;;;;;;;19.82;77.14;99346.38;5158695;27;20078;-58
2023/05/31 04:49:31;;;;;;;3.50;1.38;;;;;;;20.17;74.46;99353.34;5158698;27;20165;-64
2023/05/31 04:51:57;;;;;;;1.55;1.33;;;;;;;20.91;71.45;99358.69;5158751;27;20141;-55
2023/05/31 04:54:23;;;;;;;3.72;1.05;;;;;;;21.09;72.08;99357.50;5158440;27;20134;-59
2023/05/31 04:56:49;;;;;;;2.40;1.30;;;;;;;21.54;70.35;99360.50;5158808;27;20365;-56
2023/05/31 04:59:15;;;;;;;2.80;1.40;;;;;;;21.48;70.24;99355.88;5157464;27;20046;-54
2023/05/31 05:01:41;;;;;;;2.85;1.48;;;;;;;21.25;71.13;99356.75;5158557;27;20085;-61
2023/05/31 05:04:07;;;;;;;9.70;1.27;;;;;;;22.14;67.41;99365.78;5158240;27;20331;-57
2023/05/31 05:06:33;;;;;;;3.42;1.20;;;;;;;22.50;66.00;99365.66;5158021;27;20137;-60
2023/05/31 05:08:59;;;;;;;1.48;1.02;;;;;;;22.77;66.00;99370.88;5157854;27;20419;-56
2023/05/31 05:11:25;;;;;;;4.32;1.42;;;;;;;22.70;65.52;99362.72;5157983;27;20073;-61
2023/05/31 05:13:51;;;;;;;4.38;1.13;;;;;;;22.67;63.83;99368.41;5157823;27;20447;-56
2023/05/31 05:16:17;;;;;;;3.55;1.42;;;;;;;22.97;63.56;99378.34;5157763;27;20047;-59
2023/05/31 05:18:43;;;;;;;6.38;1.60;;;;;;;23.41;64.09;99373.81;5157565;27;20364;-61
2023/05/31 05:21:09;;;;;;;3.33;1.35;;;;;;;23.62;62.58;99365.97;5158073;27;20058;-63
2023/05/31 05:23:37;;;;;;;6.38;1.50;;;;;;;22.85;63.93;99368.66;5157867;27;20054;-61
2023/05/31 05:26:04;;;;;;;3.40;1.10;;;;;;;22.84;61.51;99378.28;5158138;27;20050;-60
2023/05/31 05:28:30;;;;;;;1.15;0.95;;;;;;;22.99;63.49;99376.69;5157755;27;20054;-53
2023/05/31 05:30:56;;;;;;;2.83;1.00;;;;;;;23.09;61.70;99376.78;5158130;27;20424;-57
2023/05/31 05:33:22;;;;;;;4.43;1.40;;;;;;;23.13;59.66;99371.91;5157754;27;20056;-61
2023/05/31 05:35:47;;;;;;;4.00;1.42;;;;;;;22.16;60.90;99360.59;5158029;27;20047;-60
2023/05/31 05:38:13;;;;;;;5.63;1.30;;;;;;;23.73;58.78;99362.88;5157712;27;20056;-63
2023/05/31 05:40:39;;;;;;;1.52;1.02;;;;;;;23.61;58.58;99364.41;5157568;27;20142;-62
2023/05/31 05:43:08;;;;;;;0.82;0.82;;;;;;;23.77;57.77;99358.72;5157918;27;20087;-56
2023/05/31 05:45:33;;;;;;;3.40;1.70;;;;;;;22.70;60.30;99365.50;5162085;27;20129;-58
2023/05/31 05:47:59;;;;;;;5.47;1.38;;;;;;;23.00;60.01;99360.69;5162449;27;20143;-54
2023/05/31 05:50:26;;;;;;;2.15;1.27;;;;;;;23.64;57.75;99353.09;5161597;27;20086;-63
2023/05/31 05:52:52;;;;;;;1.40;1.00;;;;;;;23.82;57.43;99346.94;5160515;27;20043;-60
2023/05/31 05:55:19;;;;;;;4.88;1.23;;;;;;;23.13;57.69;99352.31;5160736;27;20388;-64
2023/05/31 05:57:45;;;;;;;2.03;1.20;;;;;;;23.52;57.27;99355.91;5158035;27;20047;-57
2023/05/31 06:00:14;;;;;;;6.65;1.85;;;;;;;24.11;57.47;99355.16;5157256;27;20118;-59
2023/05/31 06:02:40;;;;;;;5.95;1.60;;;;;;;23.38;57.50;99341.13;5157719;27;20146;-59
2023/05/31 06:05:07;;;;;;;7.25;1.52;;;;;;;24.38;56.07;99342.63;5157057;27;20050;-63
2023/05/31 06:07:33;;;;;;;7.50;1.58;;;;;;;25.16;54.94;99343.78;5157167;27;20050;-65
2023/05/31 06:09:59;;;;;;;4.75;1.83;;;;;;;25.41;53.87;99343.59;5158413;27;20046;-54
2023/05/31 06:12:25;;;;;;;4.72;1.60;;;;;;;25.47;53.77;99338.94;5160893;27;20047;-55
2023/05/31 06:14:51;;;;;;;10.32;1.60;;;;;;;25.70;53.64;99340.41;5160850;27;20282;-58
2023/05/31 06:17:18;;;;;;;8.45;1.83;;;;;;;25.54;53.66;99335.06;5160584;27;20046;-63
2023/05/31 06:19:44;;;;;;;3.15;1.50;;;;;;;25.64;52.11;99335.88;5160727;27;20047;-62
2023/05/31 06:22:10;;;;;;;4.05;1.50;;;;;;;25.73;51.95;99333.09;5160679;27;20065;-61
2023/05/31 06:24:35;;;;;;;7.22;2.50;;;;;;;26.00;55.51;99321.16;5160847;27;20416;-62
2023/05/31 06:27:02;;;;;;;5.88;3.78;;;;;;;26.42;55.99;99323.34;5161345;27;20046;-59
2023/05/31 06:29:28;;;;;;;7.15;1.63;;;;;;;26.40;52.46;99320.22;5161160;27;20377;-56
2023/05/31 06:31:55;;;;;;;5.80;2.20;;;;;;;26.81;53.81;99327.22;5160382;27;20141;-55
2023/05/31 06:34:22;;;;;;;3.75;1.40;;;;;;;27.42;50.74;99330.81;5160946;27;20158;-63
2023/05/31 06:36:48;;;;;;;4.80;1.58;;;;;;;27.69;49.77;99329.06;5160595;27;20415;-67
2023/05/31 06:39:14;;;;;;;5.03;1.70;;;;;;;27.47;49.94;99322.94;5160958;27;20061;-62
2023/05/31 06:41:40;;;;;;;5.22;1.42;;;;;;;27.56;47.82;99334.94;5160259;27;20047;-53
2023/05/31 06:44:06;;;;;;;4.18;2.97;;;;;;;27.32;48.96;99317.22;5160190;27;20062;-50
2023/05/31 06:46:32;;;;;;;1.73;1.30;;;;;;;27.41;48.03;99323.59;5160447;27;20114;-52
2023/05/31 06:48:58;;;;;;;4.53;1.45;;;;;;;27.34;49.16;99323.94;5160331;27;20138;-53
2023/05/31 06:51:24;;;;;;;3.50;1.75;;;;;;;27.38;49.51;99318.91;5160222;27;20061;-55
2023/05/31 06:53:50;;;;;;;3.00;1.40;;;;;;;27.27;49.33;99320.69;5159859;27;20053;-55
2023/05/31 06:56:16;;;;;;;5.93;1.27;;;;;;;26.18;50.06;99321.16;5160267;27;20042;-57
2023/05/31 06:58:42;;;;;;;5.03;1.75;;;;;;;26.86;48.72;99318.16;5159896;27;20051;-58
2023/05/31 07:01:08;;;;;;;2.50;1.48;;;;;;;27.39;48.35;99311.25;5159689;27;20105;-54
2023/05/31 07:03:34;;;;;;;2.63;1.20;;;;;;;27.45;47.95;99306.53;5159809;27;20093;-50
2023/05/31 07:06:00;;;;;;;4.60;1.40;;;;;;;26.80;48.31;99313.63;5160087;27;20357;-54
2023/05/31 07:08:27;;;;;;;5.57;1.77;;;;;;;27.23;47.94;99306.81;5160009;27;20093;-58
2023/05/31 07:10:54;;;;;;;2.00;1.38;;;;;;;27.48;46.98;99305.56;5159867;27;20141;-57
2023/05/31 07:13:20;;;;;;;7.82;1.55;;;;;;;27.23;47.58;99301.16;5160134;27;20047;-53
2023/05/31 07:15:46;;;;;;;4.20;1.50;;;;;;;26.65;47.48;99296.63;5159984;27;20133;-56
2023/05/31 07:18:11;;;;;;;4.38;1.40;;;;;;;26.73;47.89;99292.25;5159706;27;20513;-58
2023/05/31 07:20:37;;;;;;;3.50;1.50;;;;;;;27.33;47.95;99288.63;5159497;27;20058;-58
2023/05/31 07:23:03;;;;;;;4.95;1.58;;;;;;;27.11;46.96;99296.50;5159289;27;20061;-59
2023/05/31 07:25:30;;;;;;;3.13;1.40;;;;;;;27.50;46.24;99291.81;5159569;27;20197;-59
2023/05/31 07:27:56;;;;;;;7.63;1.88;;;;;;;27.66;45.42;99291.41;5159906;27;20315;-59
2023/05/31 07:30:22;;;;;;;9.45;1.48;;;;;;;26.90;45.18;99292.66;5159571;27;20082;-59
2023/05/31 07:32:47;;;;;;;2.90;1.23;;;;;;;26.37;45.78;99290.25;5159938;27;20051;-59
2023/05/31 07:35:13;;;;;;;12.48;1.60;;;;;;;25.83;46.59;99286.97;5159448;27;20416;-60
2023/05/31 07:37:40;;;;;;;5.07;1.67;;;;;;;25.98;47.81;99285.09;5159378;27;20535;-54
2023/05/31 07:40:07;;;;;;;2.38;1.58;;;;;;;26.27;48.06;99281.81;5159651;27;20098;-52
2023/05/31 07:42:34;;;;;;;3.33;1.20;;;;;;;26.66;47.08;99281.34;5159278;27;20042;-51
2023/05/31 07:45:00;;;;;;;2.78;1.50;;;;;;;26.80;46.25;99286.28;5159335;27;20407;-60
2023/05/31 07:47:26;;;;;;;2.70;1.65;;;;;;;26.66;46.81;99284.91;5159076;27;20138;-57
2023/05/31 07:49:52;;;;;;;4.72;2.05;;;;;;;27.05;45.16;99281.50;5159494;27;20137;-57
2023/05/31 07:52:21;;;;;;;3.78;1.30;;;;;;;27.66;45.23;99282.19;5159133;27;20047;-53
2023/05/31 07:54:47;;;;;;;6.93;1.63;;;;;;;27.43;45.83;99289.34;5159461;27;20145;-53
2023/05/31 07:57:13;;;;;;;4.43;1.50;;;;;;;26.25;46.78;99286.34;5159006;27;20122;-56
2023/05/31 07:59:39;;;;;;;6.05;1.58;;;;;;;26.72;45.83;99282.22;5159264;27;20093;-56
2023/05/31 08:02:06;;;;;;;2.33;1.23;;;;;;;26.77;45.35;99284.41;5158932;27;20255;-57
2023/05/31 08:04:32;;;;;;;3.58;1.50;;;;;;;26.82;46.11;99277.38;5159180;27;20195;-53
2023/05/31 08:06:58;;;;;;;8.10;1.98;;;;;;;26.94;46.21;99270.78;5159204;27;20054;-57
2023/05/31 08:09:24;;;;;;;2.70;1.45;;;;;;;26.43;46.66;99265.88;5158892;27;20469;-56
2023/05/31 08:11:52;;;;;;;5.82;1.65;;;;;;;25.83;48.92;99269.34;5158667;27;20051;-55
2023/05/31 08:14:18;;;;;;;10.63;1.90;;;;;;;26.74;46.95;99274.13;5158854;27;20381;-61
2023/05/31 08:16:44;;;;;;;9.73;1.60;;;;;;;26.66;46.92;99278.53;5158868;27;20055;-59
2023/05/31 08:19:10;;;;;;;7.68;1.33;;;;;;;26.85;46.25;99263.13;5158649;27;20057;-62
2023/05/31 08:21:37;;;;;;;3.50;1.63;;;;;;;27.18;45.92;99268.81;5158808;27;20058;-56
2023/05/31 08:24:03;;;;;;;5.30;1.50;;;;;;;27.12;45.69;99276.31;5158704;27;20053;-54
2023/05/31 08:26:28;;;;;;;7.15;1.80;;;;;;;26.59;46.10;99267.59;5159011;27;20374;-61
2023/05/31 08:28:54;;;;;;;7.97;1.80;;;;;;;26.09;47.82;99262.19;5158479;27;20137;-59
2023/05/31 08:31:21;;;;;;;6.80;1.60;;;;;;;26.57;45.98;99258.84;5158967;27;20141;-58
2023/05/31 08:33:55;;;;;;;9.32;1.75;;;;;;;25.38;46.44;99253.94;5157176;27;20149;-60
2023/05/31 08:36:21;;;;;;;4.88;1.67;;;;;;;26.21;46.90;99252.78;5158721;27;20050;-61
2023/05/31 08:38:47;;;;;;;7.03;1.90;;;;;;;26.88;45.46;99250.94;5158801;27;20421;-53
2023/05/31 08:41:13;;;;;;;3.75;1.38;;;;;;;27.15;45.71;99252.09;5158218;27;20138;-56
2023/05/31 08:43:40;;;;;;;5.00;1.45;;;;;;;27.88;45.70;99242.44;5158688;27;20178;-60
2023/05/31 08:46:07;;;;;;;4.05;1.60;;;;;;;27.95;45.14;99249.75;5158252;27;20046;-63
2023/05/31 08:48:38;;;;;;;4.15;1.67;;;;;;;27.43;45.65;99238.66;5158379;27;20093;-56
2023/05/31 08:51:07;;;;;;;8.80;1.50;;;;;;;27.01;45.36;99238.69;5158090;27;20106;-60
2023/05/31 08:53:34;;;;;;;9.63;1.85;;;;;;;26.71;46.30;99230.84;5158741;27;20053;-54
2023/05/31 08:56:01;;;;;;;5.43;1.77;;;;;;;26.37;47.07;99240.44;5158091;27;20057;-55
2023/05/31 08:58:28;;;;;;;4.38;1.80;;;;;;;26.44;46.99;99236.53;5158352;27;20085;-56
2023/05/31 09:00:54;;;;;;;4.60;1.70;;;;;;;26.48;47.26;99234.34;5157347;27;20416;-56
2023/05/31 09:03:22;;;;;;;7.25;2.00;;;;;;;25.96;46.86;99239.84;5158118;27;20073;-56
2023/05/31 09:05:48;;;;;;;2.45;1.45;;;;;;;26.44;46.01;99242.91;5157812;27;20138;-51
2023/05/31 09:08:15;;;;;;;3.45;1.42;;;;;;;26.85;44.98;99225.78;5158244;27;20103;-58
2023/05/31 09:10:41;;;;;;;6.72;1.50;;;;;;;25.56;47.24;99235.13;5158401;27;20061;-56
2023/05/31 09:13:08;;;;;;;3.65;1.70;;;;;;;26.60;45.79;99236.19;5158112;27;20093;-58
2023/05/31 09:15:36;;;;;;;5.00;1.73;;;;;;;27.20;45.01;99232.53;5158291;27;20349;-55
2023/05/31 09:18:13;;;;;;;3.47;2.30;;;;;;;27.34;46.67;99222.59;5157903;27;20050;-56
2023/05/31 09:20:39;;;;;;;8.48;1.90;;;;;;;27.82;45.32;99219.00;5158122;27;20077;-54
2023/05/31 09:23:05;;;;;;;7.75;2.58;;;;;;;27.91;44.89;99224.56;5157790;27;20411;-53
2023/05/31 09:25:44;;;;;;;3.25;1.83;;;;;;;27.91;44.58;99224.56;5158434;27;20475;-55
2023/05/31 09:28:10;;;;;;;5.28;1.65;;;;;;;27.93;45.02;99216.44;5157860;27;20149;-56
2023/05/31 09:30:36;;;;;;;6.10;2.05;;;;;;;28.17;45.30;99213.53;5157898;27;20094;-58
2023/05/31 09:33:02;;;;;;;8.63;1.42;;;;;;;28.06;44.15;99202.06;5157656;27;20054;-59
2023/05/31 09:35:28;;;;;;;6.22;1.55;;;;;;;28.32;44.41;99213.53;5157559;27;20046;-60
2023/05/31 09:37:56;;;;;;;2.25;1.27;;;;;;;27.79;44.52;99195.41;5157452;27;20420;-56
2023/05/31 09:40:26;;;;;;;5.60;1.60;;;;;;;27.41;44.37;99196.91;5157079;27;20203;-61
2023/05/31 09:42:54;;;;;;;7.65;1.77;;;;;;;26.93;45.89;99182.00;5157814;27;20195;-52
2023/05/31 09:45:21;;;;;;;4.55;1.50;;;;;;;26.77;46.14;99188.03;5158973;27;20404;-61
2023/05/31 09:47:48;;;;;;;4.88;1.40;;;;;;;27.19;45.52;99182.34;5161743;27;20047;-53
2023/05/31 09:50:16;;;;;;;11.30;1.95;;;;;;;26.42;46.76;99177.94;5161104;27;20050;-56
2023/05/31 09:52:44;;;;;;;3.67;1.30;;;;;;;26.44;46.54;99169.06;5161343;27;20046;-61
2023/05/31 09:55:13;;;;;;;2.38;1.40;;;;;;;27.41;45.92;99180.00;5161061;27;20051;-56
2023/05/31 09:57:40;;;;;;;5.07;1.77;;;;;;;27.61;46.01;99164.53;5160795;27;20046;-62
2023/05/31 10:00:14;;;;;;;4.82;1.40;;;;;;;27.61;45.69;99158.91;5161127;27;20050;-56
2023/05/31 10:02:42;;;;;;;2.75;1.40;;;;;;;26.93;45.11;99151.06;5160913;27;20100;-60
2023/05/31 10:05:09;;;;;;;7.40;1.70;;;;;;;26.67;45.49;99148.69;5160934;27;20051;-53
2023/05/31 10:07:36;;;;;;;12.27;1.73;;;;;;;27.13;46.19;99144.88;5160782;27;20057;-58
2023/05/31 10:10:03;;;;;;;5.78;1.40;;;;;;;26.98;45.58;99148.38;5161261;27;20051;-59
2023/05/31 10:12:32;;;;;;;6.03;1.60;;;;;;;26.66;45.78;99149.94;5160670;27;20066;-55
2023/05/31 10:15:01;;;;;;;1.38;1.27;;;;;;;27.20;45.63;99136.09;5160572;27;20043;-62
2023/05/31 10:17:29;;;;;;;4.70;1.45;;;;;;;27.24;45.62;99141.53;5160627;27;20416;-58
2023/05/31 10:20:00;;;;;;;7.15;1.60;;;;;;;27.38;46.15;99118.28;5160349;27;20054;-57
2023/05/31 10:22:30;;;;;;;3.28;1.73;;;;;;;27.73;45.08;99126.91;5160915;27;20047;-57
2023/05/31 10:25:02;;;;;;;7.40;1.50;;;;;;;27.72;45.88;99133.78;5160882;27;20060;-55
2023/05/31 10:27:31;;;;;;;2.60;1.38;;;;;;;27.65;44.73;99125.72;5160920;27;20057;-63
2023/05/31 10:30:04;;;;;;;5.53;1.48;;;;;;;26.69;46.18;99120.88;5160582;27;20047;-60
2023/05/31 10:32:34;;;;;;;5.43;1.50;;;;;;;27.45;45.18;99117.91;5160984;27;20058;-57
2023/05/31 10:35:01;;;;;;;9.25;2.00;;;;;;;27.58;45.33;99112.78;5160449;27;20054;-59
2023/05/31 10:37:28;;;;;;;8.45;2.63;;;;;;;27.88;45.76;99124.88;5160718;27;20422;-53
2023/05/31 10:40:01;;;;;;;4.95;1.70;;;;;;;27.96;43.85;99116.84;5160525;27;20323;-55
2023/05/31 10:42:35;;;;;;;4.35;1.55;;;;;;;27.08;46.76;99104.06;5160421;27;20047;-62
2023/05/31 10:45:09;;;;;;;7.10;1.77;;;;;;;26.76;45.34;99105.69;5160522;27;20138;-63
2023/05/31 10:47:42;;;;;;;5.60;1.90;;;;;;;26.94;44.67;99099.19;5160133;27;20050;-52
2023/05/31 10:50:08;;;;;;;1.90;1.33;;;;;;;26.91;45.87;99094.50;5160193;27;20133;-53
2023/05/31 10:52:34;;;;;;;6.10;3.42;;;;;;;26.67;45.97;99098.06;5159904;27;20054;-59
2023/05/31 10:55:16;;;;;;;6.13;1.88;;;;;;;25.78;46.54;99091.75;5160400;27;20411;-61
2023/05/31 10:57:42;;;;;;;7.15;1.65;;;;;;;25.65;45.53;99082.75;5158733;27;20073;-55
2023/05/31 11:00:11;;;;;;;3.38;1.52;;;;;;;25.31;47.82;99087.44;5159816;27;20047;-60
2023/05/31 11:02:45;;;;;;;8.55;2.38;;;;;;;25.10;47.46;99085.53;5159996;27;20397;-61
2023/05/31 11:05:18;;;;;;;;;;;;;;;24.48;48.54;99077.28;5160316;27;20327;-53
2023/05/31 11:07:44;;;;;;;6.65;1.90;;;;;;;24.44;48.62;99068.25;5159990;27;19923;-58
2023/05/31 11:10:10;;;;;;;9.65;1.90;;;;;;;24.41;48.98;99073.53;5159839;27;20051;-61
2023/05/31 11:12:37;;;;;;;6.88;1.70;;;;;;;24.88;48.45;99075.22;5160000;27;20404;-57
2023/05/31 11:15:04;;;;;;;3.92;1.50;;;;;;;24.50;47.88;99077.63;5159744;27;20043;-58
2023/05/31 11:17:38;;;;;;;4.43;1.70;;;;;;;24.26;47.79;99072.53;5159975;27;20046;-55
2023/05/31 11:20:06;;;;;;;7.20;1.85;;;;;;;24.43;47.94;99067.47;5159526;27;20051;-57
2023/05/31 11:22:32;;;;;;;4.70;1.83;;;;;;;24.17;47.44;99069.69;5159971;27;20089;-58
2023/05/31 11:24:58;;;;;;;5.82;2.10;;;;;;;24.03;48.40;99068.22;5159773;27;20297;-61
2023/05/31 11:27:35;;;;;;;4.78;2.13;;;;;;;24.11;48.98;99063.09;5159866;27;20061;-62
2023/05/31 11:30:03;;;;;;;5.90;1.63;;;;;;;24.02;48.17;99071.47;5159685;27;20050;-64
2023/05/31 11:32:55;;;;;;;8.75;1.58;;;;;;;23.90;47.83;99056.31;5159487;27;20424;-56